createdAt,value
2023-04-18T00:01:25.038Z,14.27
2023-04-18T00:03:52.782Z,16.77
2023-04-18T00:06:22.327Z,15.40
2023-04-18T00:08:49.404Z,12.20
2023-04-18T00:11:16.439Z,12.93
2023-04-18T00:13:43.626Z,13.55
2023-04-18T00:16:10.588Z,14.48
2023-04-18T00:18:39.998Z,16.45
2023-04-18T00:21:26.873Z,14.00
2023-04-18T00:24:27.813Z,12.90
2023-04-18T00:27:08.594Z,13.77
2023-04-18T00:29:35.620Z,13.55
2023-04-18T00:32:02.614Z,12.20
2023-04-18T00:34:30.818Z,14.05
2023-04-18T00:36:57.832Z,10.45
2023-04-18T00:39:24.842Z,10.90
2023-04-18T00:41:51.948Z,11.93
2023-04-18T00:44:18.854Z,13.18
2023-04-18T00:46:45.970Z,15.85
2023-04-18T00:49:13.217Z,12.90
2023-04-18T00:51:40.956Z,12.48
2023-04-18T00:54:08.569Z,12.80
2023-04-18T00:56:36.281Z,13.73
2023-04-18T00:59:03.908Z,12.40
2023-04-18T01:01:31.006Z,13.43
2023-04-18T01:03:58.156Z,12.30
2023-04-18T01:06:27.457Z,17.35
2023-04-18T01:08:56.757Z,12.95
2023-04-18T01:11:25.273Z,18.15
2023-04-18T01:14:06.086Z,13.63
2023-04-18T01:16:37.263Z,15.33
2023-04-18T01:19:06.135Z,16.65
2023-04-18T01:21:50.029Z,11.60
2023-04-18T01:24:50.929Z,12.75
2023-04-18T01:27:31.721Z,12.95
2023-04-18T01:30:00.312Z,14.50
2023-04-18T01:32:30.709Z,12.75
2023-04-18T01:35:17.867Z,14.82
2023-04-18T01:37:58.731Z,13.68
2023-04-18T01:40:27.592Z,14.55
2023-04-18T01:42:54.576Z,13.15
2023-04-18T01:45:22.569Z,15.43
2023-04-18T01:47:49.704Z,14.23
2023-04-18T01:50:16.748Z,13.60
2023-04-18T01:52:43.900Z,13.68
2023-04-18T01:55:11.093Z,17.02
2023-04-18T01:57:38.194Z,15.18
2023-04-18T02:00:06.879Z,14.50
2023-04-18T02:02:43.828Z,14.27
2023-04-18T02:05:11.153Z,14.85
2023-04-18T02:07:42.920Z,14.75
2023-04-18T02:10:11.071Z,13.88
2023-04-18T02:12:38.527Z,13.50
2023-04-18T02:15:06.848Z,14.57
2023-04-18T02:17:36.437Z,14.73
2023-04-18T02:20:17.882Z,13.68
2023-04-18T02:23:09.337Z,17.77
2023-04-18T02:25:36.341Z,13.88
2023-04-18T02:28:03.482Z,14.57
2023-04-18T02:30:31.470Z,13.98
2023-04-18T02:33:01.294Z,14.77
2023-04-18T02:35:29.192Z,14.88
2023-04-18T02:37:56.552Z,18.05
2023-04-18T02:40:23.581Z,15.63
2023-04-18T02:42:50.782Z,16.27
2023-04-18T02:45:17.980Z,15.38
2023-04-18T02:47:54.751Z,15.45
2023-04-18T02:50:24.724Z,21.58
2023-04-18T02:52:53.805Z,14.80
2023-04-18T02:55:24.493Z,14.70
2023-04-18T02:57:55.372Z,14.95
2023-04-18T03:00:42.212Z,19.23
2023-04-18T03:04:01.886Z,13.73
2023-04-18T03:09:48.606Z,14.82
2023-04-18T03:12:20.140Z,15.20
2023-04-18T03:14:47.536Z,16.27
2023-04-18T03:17:15.170Z,13.93
2023-04-18T03:19:47.201Z,13.60
2023-04-18T03:22:35.912Z,14.00
2023-04-18T03:25:17.644Z,15.93
2023-04-18T03:27:50.589Z,20.65
2023-04-18T03:30:21.009Z,14.30
2023-04-18T03:32:56.268Z,14.32
2023-04-18T03:35:23.620Z,11.07
2023-04-18T03:37:50.893Z,11.05
2023-04-18T03:40:26.313Z,12.52
2023-04-18T03:42:57.157Z,13.10
2023-04-18T03:45:24.147Z,11.40
2023-04-18T03:47:51.307Z,12.68
2023-04-18T03:50:19.165Z,14.10
2023-04-18T03:52:47.742Z,13.55
2023-04-18T03:55:16.849Z,14.18
2023-04-18T03:57:43.798Z,12.73
2023-04-18T04:00:16.760Z,12.77
2023-04-18T04:02:44.127Z,13.13
2023-04-18T04:05:18.139Z,13.23
2023-04-18T04:07:45.552Z,12.40
2023-04-18T04:10:12.909Z,13.00
2023-04-18T04:12:39.784Z,10.40
2023-04-18T04:15:07.214Z,13.95
2023-04-18T04:17:35.528Z,11.45
2023-04-18T04:20:23.935Z,11.57
2023-04-18T04:23:35.925Z,15.95
2023-04-18T04:26:27.674Z,14.10
2023-04-18T04:29:03.713Z,14.65
2023-04-18T04:31:32.610Z,13.38
2023-04-18T04:33:59.532Z,11.88
2023-04-18T04:36:27.329Z,12.77
2023-04-18T04:38:57.317Z,12.00
2023-04-18T04:41:32.403Z,12.15
2023-04-18T04:43:59.722Z,12.63
2023-04-18T04:46:30.676Z,12.98
2023-04-18T04:49:19.959Z,18.38
2023-04-18T04:52:02.009Z,18.52
2023-04-18T04:54:29.527Z,16.27
2023-04-18T04:56:56.784Z,13.57
2023-04-18T04:59:23.740Z,12.02
2023-04-18T05:02:11.020Z,12.32
2023-04-18T05:04:51.623Z,13.15
2023-04-18T05:07:18.526Z,12.38
2023-04-18T05:09:45.701Z,15.52
2023-04-18T05:12:12.612Z,12.60
2023-04-18T05:14:59.980Z,13.88
2023-04-18T05:18:00.994Z,12.63
2023-04-18T05:21:01.972Z,15.15
2023-04-18T05:23:42.663Z,13.20
2023-04-18T05:26:09.563Z,15.20
2023-04-18T05:28:36.513Z,17.38
2023-04-18T05:31:24.050Z,17.83
2023-04-18T05:34:25.039Z,16.65
2023-04-18T05:37:05.783Z,16.00
2023-04-18T05:39:53.001Z,28.23
2023-04-18T05:42:33.633Z,15.63
2023-04-18T05:45:00.756Z,19.48
2023-04-18T05:47:48.045Z,15.73
2023-04-18T05:50:49.009Z,14.95
2023-04-18T05:53:29.593Z,15.50
2023-04-18T05:55:57.703Z,14.50
2023-04-18T05:58:24.652Z,15.50
2023-04-18T06:00:52.960Z,13.07
2023-04-18T06:03:40.497Z,12.95
2023-04-18T06:06:21.262Z,19.08
2023-04-18T06:08:48.231Z,12.95
2023-04-18T06:11:15.539Z,13.43
2023-04-18T06:13:43.040Z,12.25
2023-04-18T06:16:10.070Z,11.00
2023-04-18T06:18:37.094Z,17.13
2023-04-18T06:21:24.054Z,17.05
2023-04-18T06:24:04.594Z,13.57
2023-04-18T06:26:32.110Z,16.50
2023-04-18T06:28:59.103Z,14.20
2023-04-18T06:31:46.023Z,18.95
2023-04-18T06:34:26.723Z,19.85
2023-04-18T06:36:54.093Z,11.55
2023-04-18T06:39:21.357Z,9.23
2023-04-18T06:41:49.359Z,13.13
2023-04-18T06:44:27.412Z,12.52
2023-04-18T06:46:55.077Z,9.48
2023-04-18T06:49:26.237Z,9.68
2023-04-18T06:51:53.683Z,9.00
2023-04-18T06:54:20.583Z,9.80
2023-04-18T06:56:47.713Z,10.45
2023-04-18T06:59:14.956Z,15.25
2023-04-18T07:02:02.057Z,10.90
2023-04-18T07:05:03.033Z,16.45
2023-04-18T07:08:04.012Z,18.08
2023-04-18T07:10:44.791Z,12.50
2023-04-18T07:13:32.063Z,12.43
2023-04-18T07:16:16.138Z,12.95
2023-04-18T07:19:03.084Z,19.15
2023-04-18T07:22:04.091Z,15.98
2023-04-18T07:24:44.720Z,23.55
2023-04-18T07:27:11.698Z,13.52
2023-04-18T07:29:38.721Z,14.65
2023-04-18T07:32:08.173Z,17.55
2023-04-18T07:34:36.304Z,20.05
2023-04-18T07:37:03.496Z,17.95
2023-04-18T07:39:44.069Z,17.15
2023-04-18T07:42:34.608Z,13.80
2023-04-18T07:45:01.536Z,14.80
2023-04-18T07:47:49.099Z,27.27
2023-04-18T07:50:50.074Z,14.63
2023-04-18T07:53:30.625Z,23.95
2023-04-18T07:56:19.055Z,25.38
2023-04-18T07:58:59.656Z,18.02
2023-04-18T08:01:27.332Z,17.48
2023-04-18T08:03:56.299Z,19.88
2023-04-18T08:06:23.478Z,23.85
2023-04-18T08:08:50.403Z,19.92
2023-04-18T08:11:17.330Z,18.20
2023-04-18T08:13:44.346Z,15.70
2023-04-18T08:16:11.372Z,31.50
2023-04-18T08:18:58.085Z,15.80
2023-04-18T08:21:59.085Z,19.80
2023-04-18T08:24:40.122Z,22.08
2023-04-18T08:27:07.182Z,19.58
2023-04-18T08:29:34.285Z,17.65
2023-04-18T08:32:01.417Z,17.40
2023-04-18T08:34:29.384Z,18.45
2023-04-18T08:36:56.749Z,16.25
2023-04-18T08:39:25.237Z,14.73
2023-04-18T08:41:59.715Z,19.52
2023-04-18T08:44:30.697Z,18.88
2023-04-18T08:46:57.787Z,28.85
2023-04-18T08:49:25.295Z,16.67
2023-04-18T08:51:53.150Z,18.58
2023-04-18T08:54:22.522Z,18.17
2023-04-18T08:57:10.512Z,14.25
2023-04-18T08:59:37.504Z,14.38
2023-04-18T09:02:08.941Z,15.68
2023-04-18T09:04:45.179Z,13.27
2023-04-18T09:07:17.121Z,12.82
2023-04-18T09:10:06.108Z,16.25
2023-04-18T09:12:55.446Z,25.30
2023-04-18T09:15:24.128Z,11.45
2023-04-18T09:17:56.341Z,12.95
2023-04-18T09:20:47.101Z,14.88
2023-04-18T09:23:48.134Z,16.05
2023-04-18T09:26:36.356Z,11.15
2023-04-18T09:29:03.775Z,12.73
2023-04-18T09:31:30.857Z,12.98
2023-04-18T09:33:57.985Z,19.45
2023-04-18T09:36:31.434Z,13.43
2023-04-18T09:38:58.513Z,11.23
2023-04-18T09:41:25.465Z,11.20
2023-04-18T09:44:11.662Z,11.30
2023-04-18T09:46:39.536Z,13.23
2023-04-18T09:49:07.907Z,11.65
2023-04-18T09:51:36.752Z,15.90
2023-04-18T09:54:05.626Z,15.40
2023-04-18T09:56:34.703Z,10.68
2023-04-18T09:59:08.530Z,10.73
2023-04-18T10:01:36.127Z,10.18
2023-04-18T10:04:04.607Z,9.23
2023-04-18T10:06:53.155Z,14.02
2023-04-18T10:09:55.165Z,11.18
2023-04-18T10:12:37.339Z,10.05
2023-04-18T10:15:06.710Z,10.80
2023-04-18T10:18:02.844Z,13.60
2023-04-18T10:20:55.148Z,7.97
2023-04-18T10:23:39.937Z,5.90
2023-04-18T10:26:08.438Z,9.93
2023-04-18T10:28:55.096Z,9.25
2023-04-18T10:31:23.977Z,8.50
2023-04-18T10:34:05.134Z,12.77
2023-04-18T10:37:13.001Z,9.90
2023-04-18T10:39:50.070Z,7.10
2023-04-18T10:42:17.577Z,8.23
2023-04-18T10:45:17.222Z,8.82
2023-04-18T10:47:44.440Z,7.70
2023-04-18T10:50:31.225Z,10.43
2023-04-18T10:53:32.167Z,10.05
2023-04-18T10:56:14.614Z,11.60
2023-04-18T10:58:42.014Z,13.15
2023-04-18T11:01:12.474Z,9.85
2023-04-18T11:03:59.319Z,9.27
2023-04-18T11:06:51.283Z,8.40
2023-04-18T11:09:18.228Z,9.30
2023-04-18T11:11:45.236Z,7.72
2023-04-18T11:14:32.224Z,5.60
2023-04-18T11:17:32.841Z,6.90
2023-04-18T11:20:22.204Z,8.07
2023-04-18T11:23:20.710Z,6.15
2023-04-18T11:25:54.582Z,11.50
2023-04-18T11:28:22.649Z,9.48
2023-04-18T11:30:49.633Z,4.43
2023-04-18T11:33:16.949Z,5.00
2023-04-18T11:35:45.835Z,5.45
2023-04-18T11:38:16.469Z,4.30
2023-04-18T11:41:08.314Z,9.07
2023-04-18T11:48:53.959Z,6.05
2023-04-18T11:51:40.260Z,7.20
2023-04-18T11:54:49.241Z,6.75
2023-04-18T11:57:50.226Z,11.27
2023-04-18T12:00:53.239Z,7.20
2023-04-18T12:03:54.341Z,8.00
2023-04-18T12:06:25.205Z,6.88
2023-04-18T12:08:58.870Z,7.07
2023-04-18T12:11:26.002Z,6.93
2023-04-18T12:14:14.377Z,7.35
2023-04-18T12:16:54.965Z,7.90
2023-04-18T12:19:31.602Z,7.50
2023-04-18T12:22:18.292Z,7.38
2023-04-18T12:25:25.012Z,6.28
2023-04-18T12:28:04.609Z,5.57
2023-04-18T12:30:36.000Z,6.72
2023-04-18T12:33:24.242Z,5.78
2023-04-18T12:36:08.656Z,4.78
2023-04-18T12:38:35.717Z,7.07
2023-04-18T12:41:02.865Z,3.90
2023-04-18T12:43:50.259Z,8.77
2023-04-18T12:46:51.267Z,5.35
2023-04-18T12:49:52.278Z,6.63
2023-04-18T12:52:54.236Z,5.82
2023-04-18T12:55:38.034Z,8.60
2023-04-18T12:58:05.009Z,13.15
2023-04-18T13:00:32.638Z,8.80
2023-04-18T13:03:00.114Z,9.27
2023-04-18T13:05:47.310Z,15.77
2023-04-18T13:08:48.285Z,15.60
2023-04-18T13:11:49.731Z,8.38
2023-04-18T13:14:16.723Z,12.07
2023-04-18T13:16:44.158Z,12.55
2023-04-18T13:19:11.512Z,13.27
2023-04-18T13:21:58.339Z,16.55
2023-04-18T13:24:38.910Z,12.45
2023-04-18T13:27:10.597Z,15.23
2023-04-18T13:29:39.710Z,8.50
2023-04-18T13:32:07.367Z,7.32
2023-04-18T13:34:59.300Z,10.40
2023-04-18T13:37:39.936Z,7.22
2023-04-18T13:40:27.333Z,14.32
2023-04-18T13:43:28.278Z,8.68
2023-04-18T13:46:30.326Z,9.48
2023-04-18T13:49:31.324Z,8.75
2023-04-18T13:52:32.313Z,8.63
2023-04-18T13:55:33.300Z,9.27
2023-04-18T13:58:34.329Z,15.38
2023-04-18T14:01:16.614Z,12.07
2023-04-18T14:03:43.990Z,11.43
2023-04-18T14:06:31.337Z,12.40
2023-04-18T14:09:12.165Z,10.45
2023-04-18T14:11:39.211Z,25.40
2023-04-18T14:14:26.351Z,10.80
2023-04-18T14:17:27.333Z,10.40
2023-04-18T14:20:28.346Z,16.02
2023-04-18T14:23:09.001Z,10.90
2023-04-18T14:25:35.902Z,14.20
2023-04-18T14:28:08.774Z,10.77
2023-04-18T14:30:37.001Z,9.48
2023-04-18T14:33:04.380Z,12.27
2023-04-18T14:35:32.196Z,9.77
2023-04-18T14:37:59.117Z,5.47
2023-04-18T14:40:26.010Z,8.95
2023-04-18T14:42:52.937Z,8.57
2023-04-18T14:45:19.939Z,11.38
2023-04-18T14:48:08.773Z,15.75
2023-04-18T14:50:57.329Z,15.82
2023-04-18T14:53:37.445Z,16.02
2023-04-18T14:56:31.354Z,16.52
2023-04-18T14:58:58.745Z,9.73
2023-04-18T15:01:26.488Z,9.55
2023-04-18T15:04:13.661Z,14.25
2023-04-18T15:07:14.208Z,12.68
2023-04-18T15:09:41.978Z,9.30
2023-04-18T15:12:08.898Z,7.07
2023-04-18T15:14:35.954Z,6.43
2023-04-18T15:17:05.880Z,8.68
2023-04-18T15:19:32.906Z,9.05
2023-04-18T15:22:20.339Z,10.52
2023-04-18T15:25:14.419Z,6.38
2023-04-18T15:27:54.979Z,6.47
2023-04-18T15:30:22.745Z,4.80
2023-04-18T15:32:49.801Z,5.38
2023-04-18T15:35:17.238Z,5.85
2023-04-18T15:37:44.334Z,17.17
2023-04-18T15:40:16.135Z,7.65
2023-04-18T15:42:43.838Z,6.72
2023-04-18T15:45:11.770Z,8.82
2023-04-18T15:47:38.926Z,26.95
2023-04-18T15:50:07.021Z,8.05
2023-04-18T15:52:34.135Z,9.98
2023-04-18T15:55:01.125Z,9.27
2023-04-18T15:57:29.870Z,12.07
2023-04-18T15:59:57.257Z,9.70
2023-04-18T16:02:25.394Z,10.95
2023-04-18T16:04:52.493Z,13.80
2023-04-18T16:07:19.439Z,11.93
2023-04-18T16:10:06.398Z,19.83
2023-04-18T16:12:46.983Z,11.80
2023-04-18T16:15:14.044Z,10.55
2023-04-18T16:18:01.414Z,10.75
2023-04-18T16:21:02.419Z,17.27
2023-04-18T16:24:03.398Z,13.95
2023-04-18T16:26:43.920Z,18.02
2023-04-18T16:29:11.128Z,13.32
2023-04-18T16:31:38.177Z,13.90
2023-04-18T16:34:05.528Z,21.60
2023-04-18T16:36:53.467Z,11.38
2023-04-18T16:39:35.205Z,11.05
2023-04-18T16:42:03.659Z,13.38
2023-04-18T16:44:30.891Z,19.08
2023-04-18T16:47:18.408Z,26.13
2023-04-18T16:49:59.128Z,18.35
2023-04-18T16:52:46.437Z,12.30
2023-04-18T16:55:27.145Z,18.70
2023-04-18T16:57:54.101Z,17.25
2023-04-18T17:00:21.300Z,13.77
2023-04-18T17:02:48.411Z,17.88
2023-04-18T17:05:35.472Z,18.83
2023-04-18T17:08:37.427Z,29.20
2023-04-18T17:11:17.995Z,20.15
2023-04-18T17:13:45.011Z,16.30
2023-04-18T17:16:32.448Z,15.88
2023-04-18T17:19:33.434Z,22.63
2023-04-18T17:22:37.494Z,26.38
2023-04-18T17:25:38.422Z,26.03
2023-04-18T17:28:19.006Z,16.75
2023-04-18T17:30:46.454Z,31.48
2023-04-18T17:33:13.353Z,23.05
2023-04-18T17:35:41.606Z,23.10
2023-04-18T17:38:10.645Z,20.77
2023-04-18T17:40:37.723Z,19.85
2023-04-18T17:43:04.739Z,16.30
2023-04-18T17:45:31.650Z,26.35
2023-04-18T17:48:18.429Z,24.65
2023-04-18T17:51:19.437Z,21.20
2023-04-18T17:54:20.431Z,17.45
2023-04-18T17:57:02.029Z,22.90
2023-04-18T17:59:29.519Z,19.85
2023-04-18T18:01:56.775Z,19.45
2023-04-18T18:04:26.528Z,22.08
2023-04-18T18:06:57.591Z,20.15
2023-04-18T18:09:24.567Z,17.15
2023-04-18T18:11:52.966Z,24.33
2023-04-18T18:14:21.645Z,26.00
2023-04-18T18:17:08.606Z,22.55
2023-04-18T18:20:09.862Z,22.38
2023-04-18T18:23:10.702Z,19.52
2023-04-18T18:26:13.472Z,25.98
2023-04-18T18:28:54.137Z,24.45
2023-04-18T18:31:24.967Z,35.38
2023-04-18T18:33:52.378Z,18.67
2023-04-18T18:36:19.288Z,24.10
2023-04-18T18:38:46.202Z,16.58
2023-04-18T18:41:13.130Z,26.63
2023-04-18T18:43:40.233Z,22.50
2023-04-18T18:46:07.218Z,19.35
2023-04-18T18:48:37.033Z,34.50
2023-04-18T18:51:04.060Z,31.20
2023-04-18T18:53:30.979Z,39.75
2023-04-18T18:56:18.506Z,36.05
2023-04-18T18:59:19.504Z,47.33
2023-04-18T19:02:20.779Z,45.08
2023-04-18T19:05:01.089Z,37.13
2023-04-18T19:07:29.950Z,33.05
2023-04-18T19:09:57.207Z,39.95
2023-04-18T19:12:24.152Z,42.95
2023-04-18T19:15:04.564Z,44.95
2023-04-18T19:17:45.565Z,31.33
2023-04-18T19:20:32.540Z,39.33
2023-04-18T19:23:34.511Z,33.95
2023-04-18T19:26:23.186Z,32.28
2023-04-18T19:28:50.258Z,33.70
2023-04-18T19:31:17.264Z,27.90
2023-04-18T19:33:44.288Z,33.05
2023-04-18T19:36:11.222Z,28.90
2023-04-18T19:38:38.144Z,24.75
2023-04-18T19:41:05.118Z,31.17
2023-04-18T19:43:32.236Z,30.30
2023-04-18T19:45:59.343Z,20.58
2023-04-18T19:48:26.360Z,37.42
2023-04-18T19:50:53.340Z,26.58
2023-04-18T19:53:20.649Z,19.02
2023-04-18T19:56:07.546Z,20.75
2023-04-18T19:58:49.152Z,21.60
2023-04-18T20:01:18.397Z,18.95
2023-04-18T20:03:46.062Z,25.05
2023-04-18T20:06:13.794Z,25.75
2023-04-18T20:08:45.869Z,14.95
2023-04-18T20:11:14.375Z,23.13
2023-04-18T20:13:41.650Z,20.25
2023-04-18T20:16:09.619Z,24.35
2023-04-18T20:18:50.188Z,13.18
2023-04-18T20:21:43.533Z,10.30
2023-04-18T20:24:28.046Z,11.43
2023-04-18T20:26:55.078Z,15.23
2023-04-18T20:29:42.592Z,12.32
2023-04-18T20:32:32.209Z,10.55
2023-04-18T20:35:00.043Z,8.35
2023-04-18T20:37:27.898Z,8.93
2023-04-18T20:39:55.850Z,12.52
2023-04-18T20:42:23.667Z,11.18
2023-04-18T20:44:51.429Z,10.00
2023-04-18T20:47:18.443Z,9.88
2023-04-18T20:49:45.872Z,9.50
2023-04-18T20:52:14.499Z,10.43
2023-04-18T20:54:41.891Z,8.80
2023-04-18T20:57:08.843Z,10.48
2023-04-18T20:59:35.894Z,9.02
2023-04-18T21:02:03.531Z,9.57
2023-04-18T21:04:30.836Z,8.60
2023-04-18T21:06:58.001Z,12.10
2023-04-18T21:09:24.970Z,11.60
2023-04-18T21:11:52.004Z,12.25
2023-04-18T21:14:19.992Z,8.57
2023-04-18T21:16:46.950Z,10.48
2023-04-18T21:19:13.896Z,11.05
2023-04-18T21:22:00.583Z,12.50
2023-04-18T21:25:01.549Z,9.20
2023-04-18T21:27:42.127Z,11.15
2023-04-18T21:30:09.183Z,10.43
2023-04-18T21:32:36.397Z,12.10
2023-04-18T21:35:03.692Z,12.57
2023-04-18T21:37:31.644Z,11.80
2023-04-18T21:39:58.508Z,10.50
2023-04-18T21:42:25.433Z,11.98
2023-04-18T21:44:52.351Z,14.02
2023-04-18T21:47:19.545Z,11.48
2023-04-18T21:49:46.509Z,10.35
2023-04-18T21:52:13.606Z,9.75
2023-04-18T21:55:00.608Z,11.50
2023-04-18T21:57:41.220Z,11.65
2023-04-18T22:00:10.650Z,13.13
2023-04-18T22:02:40.068Z,10.63
2023-04-18T22:05:08.093Z,14.05
2023-04-18T22:07:43.222Z,11.93
2023-04-18T22:10:18.468Z,12.13
2023-04-18T22:12:45.898Z,11.75
2023-04-18T22:15:12.899Z,12.18
2023-04-18T22:17:41.518Z,13.52
2023-04-18T22:20:28.631Z,11.35
2023-04-18T22:23:09.345Z,12.85
2023-04-18T22:25:36.405Z,12.82
2023-04-18T22:28:04.335Z,11.25
2023-04-18T22:30:31.965Z,16.13
2023-04-18T22:32:59.336Z,15.10
2023-04-18T22:35:26.858Z,9.50
2023-04-18T22:37:53.906Z,11.30
2023-04-18T22:40:20.853Z,10.98
2023-04-18T22:42:47.802Z,13.68
2023-04-18T22:45:15.550Z,13.45
2023-04-18T22:47:42.550Z,11.68
2023-04-18T22:50:09.918Z,9.95
2023-04-18T22:52:36.897Z,11.45
2023-04-18T22:55:04.115Z,11.95
2023-04-18T22:57:31.356Z,15.15
2023-04-18T22:59:58.364Z,15.00
2023-04-18T23:02:25.455Z,17.33
2023-04-18T23:04:53.407Z,11.00
2023-04-18T23:07:20.334Z,13.70
2023-04-18T23:09:47.277Z,15.95
2023-04-18T23:12:14.324Z,12.77
2023-04-18T23:14:41.983Z,12.43
2023-04-18T23:17:09.016Z,11.02
2023-04-18T23:19:36.092Z,11.82
2023-04-18T23:22:22.640Z,11.80
2023-04-18T23:25:23.680Z,16.92
2023-04-18T23:28:04.415Z,12.90
2023-04-18T23:30:31.424Z,12.20
2023-04-18T23:32:58.358Z,12.55
2023-04-18T23:35:25.363Z,17.92
2023-04-18T23:37:52.212Z,14.45
2023-04-18T23:40:39.646Z,13.95
2023-04-18T23:43:33.591Z,14.35
2023-04-18T23:46:00.977Z,16.63
2023-04-18T23:48:28.011Z,16.42
2023-04-18T23:50:54.982Z,12.55
2023-04-18T23:53:22.841Z,14.68
2023-04-18T23:55:51.088Z,14.57
2023-04-18T23:58:18.300Z,16.00
